sensor_id;sensor_type;location;lat;lon;timestamp;pressure;altitude;pressure_sealevel;temperature;humidity
13612;BME280;6877;51.436;6.774;2023-07-20T00:00:15;100878.13;;;17.23;87.19
13612;BME280;6877;51.436;6.774;2023-07-20T00:02:42;100878.53;;;17.14;87.65
13612;BME280;6877;51.436;6.774;2023-07-20T00:05:13;100870.00;;;17.07;87.60
13612;BME280;6877;51.436;6.774;2023-07-20T00:07:44;100866.63;;;17.04;87.84
13612;BME280;6877;51.436;6.774;2023-07-20T00:10:16;100875.50;;;17.03;88.17
13612;BME280;6877;51.436;6.774;2023-07-20T00:12:42;100874.78;;;16.99;88.63
13612;BME280;6877;51.436;6.774;2023-07-20T00:15:13;100875.94;;;16.92;88.47
13612;BME280;6877;51.436;6.774;2023-07-20T00:17:45;100864.88;;;16.84;89.03
13612;BME280;6877;51.436;6.774;2023-07-20T00:20:16;100869.47;;;16.79;88.90
13612;BME280;6877;51.436;6.774;2023-07-20T00:22:43;100871.47;;;16.72;89.92
13612;BME280;6877;51.436;6.774;2023-07-20T00:25:09;100864.75;;;16.65;90.19
13612;BME280;6877;51.436;6.774;2023-07-20T00:27:37;100862.28;;;16.60;89.96
13612;BME280;6877;51.436;6.774;2023-07-20T00:30:09;100860.69;;;16.56;90.80
13612;BME280;6877;51.436;6.774;2023-07-20T00:32:36;100863.22;;;16.59;91.03
13612;BME280;6877;51.436;6.774;2023-07-20T00:35:04;100850.59;;;16.66;90.86
13612;BME280;6877;51.436;6.774;2023-07-20T00:37:31;100849.53;;;16.70;90.85
13612;BME280;6877;51.436;6.774;2023-07-20T00:40:03;100855.53;;;16.75;90.43
13612;BME280;6877;51.436;6.774;2023-07-20T00:42:31;100849.19;;;16.79;90.38
13612;BME280;6877;51.436;6.774;2023-07-20T00:44:57;100855.41;;;16.78;90.14
13612;BME280;6877;51.436;6.774;2023-07-20T00:47:24;100855.53;;;16.75;90.39
13612;BME280;6877;51.436;6.774;2023-07-20T00:49:56;100848.63;;;16.71;90.22
13612;BME280;6877;51.436;6.774;2023-07-20T00:52:23;100859.34;;;16.68;90.30
13612;BME280;6877;51.436;6.774;2023-07-20T00:54:56;100863.00;;;16.64;90.69
13612;BME280;6877;51.436;6.774;2023-07-20T00:57:24;100862.38;;;16.59;91.19
13612;BME280;6877;51.436;6.774;2023-07-20T00:59:51;100862.38;;;16.59;91.15
13612;BME280;6877;51.436;6.774;2023-07-20T01:02:18;100861.31;;;16.63;91.09
13612;BME280;6877;51.436;6.774;2023-07-20T01:04:44;100859.59;;;16.62;90.97
13612;BME280;6877;51.436;6.774;2023-07-20T01:07:25;100854.56;;;16.56;91.04
13612;BME280;6877;51.436;6.774;2023-07-20T01:12:48;100862.41;;;16.57;91.59
13612;BME280;6877;51.436;6.774;2023-07-20T01:15:22;100850.84;;;16.60;91.70
13612;BME280;6877;51.436;6.774;2023-07-20T01:17:49;100855.16;;;16.62;91.21
13612;BME280;6877;51.436;6.774;2023-07-20T01:20:21;100858.31;;;16.71;91.67
13612;BME280;6877;51.436;6.774;2023-07-20T01:31:33;100864.88;;;16.62;95.49
13612;BME280;6877;51.436;6.774;2023-07-20T01:34:02;100866.28;;;16.49;97.12
13612;BME280;6877;51.436;6.774;2023-07-20T01:36:35;100864.41;;;16.30;98.89
13612;BME280;6877;51.436;6.774;2023-07-20T01:39:02;100859.00;;;16.11;100.00
13612;BME280;6877;51.436;6.774;2023-07-20T01:41:31;100859.97;;;15.87;100.00
13612;BME280;6877;51.436;6.774;2023-07-20T01:43:58;100863.56;;;15.61;100.00
13612;BME280;6877;51.436;6.774;2023-07-20T01:46:25;100855.66;;;15.37;100.00
13612;BME280;6877;51.436;6.774;2023-07-20T01:48:53;100865.03;;;15.21;100.00
13612;BME280;6877;51.436;6.774;2023-07-20T01:51:19;100852.00;;;15.16;100.00
13612;BME280;6877;51.436;6.774;2023-07-20T01:53:46;100854.91;;;15.09;100.00
13612;BME280;6877;51.436;6.774;2023-07-20T01:56:12;100848.16;;;15.01;100.00
13612;BME280;6877;51.436;6.774;2023-07-20T01:58:43;100849.97;;;14.99;100.00
13612;BME280;6877;51.436;6.774;2023-07-20T02:01:10;100843.84;;;14.99;100.00
13612;BME280;6877;51.436;6.774;2023-07-20T02:03:36;100835.88;;;15.00;100.00
13612;BME280;6877;51.436;6.774;2023-07-20T02:06:08;100844.69;;;14.99;100.00
13612;BME280;6877;51.436;6.774;2023-07-20T02:08:40;100842.91;;;15.00;100.00
13612;BME280;6877;51.436;6.774;2023-07-20T02:11:06;100851.56;;;15.03;100.00
13612;BME280;6877;51.436;6.774;2023-07-20T02:13:37;100858.59;;;15.04;100.00
13612;BME280;6877;51.436;6.774;2023-07-20T02:16:04;100858.47;;;15.07;100.00
13612;BME280;6877;51.436;6.774;2023-07-20T02:18:31;100856.63;;;15.10;100.00
13612;BME280;6877;51.436;6.774;2023-07-20T02:20:57;100867.03;;;15.14;100.00
13612;BME280;6877;51.436;6.774;2023-07-20T02:23:33;100854.72;;;15.15;100.00
13612;BME280;6877;51.436;6.774;2023-07-20T02:26:04;100858.25;;;15.14;100.00
13612;BME280;6877;51.436;6.774;2023-07-20T02:28:35;100865.44;;;15.10;100.00
13612;BME280;6877;51.436;6.774;2023-07-20T02:31:02;100868.00;;;15.12;100.00
13612;BME280;6877;51.436;6.774;2023-07-20T02:33:28;100864.50;;;15.11;100.00
13612;BME280;6877;51.436;6.774;2023-07-20T02:35:55;100868.16;;;15.07;100.00
13612;BME280;6877;51.436;6.774;2023-07-20T02:38:21;100863.78;;;15.06;100.00
13612;BME280;6877;51.436;6.774;2023-07-20T02:40:53;100855.03;;;15.05;100.00
13612;BME280;6877;51.436;6.774;2023-07-20T02:43:19;100860.31;;;15.05;100.00
13612;BME280;6877;51.436;6.774;2023-07-20T02:45:45;100858.53;;;15.06;100.00
13612;BME280;6877;51.436;6.774;2023-07-20T02:48:18;100861.34;;;15.01;100.00
13612;BME280;6877;51.436;6.774;2023-07-20T02:50:59;100864.19;;;14.95;100.00
13612;BME280;6877;51.436;6.774;2023-07-20T02:53:25;100867.75;;;14.94;100.00
13612;BME280;6877;51.436;6.774;2023-07-20T02:55:57;100865.03;;;14.96;100.00
13612;BME280;6877;51.436;6.774;2023-07-20T02:58:28;100865.78;;;14.99;100.00
13612;BME280;6877;51.436;6.774;2023-07-20T03:01:00;100864.13;;;14.97;100.00
13612;BME280;6877;51.436;6.774;2023-07-20T03:03:26;100865.03;;;14.96;100.00
13612;BME280;6877;51.436;6.774;2023-07-20T03:05:53;100866.81;;;14.95;100.00
13612;BME280;6877;51.436;6.774;2023-07-20T03:08:25;100869.50;;;14.94;100.00
13612;BME280;6877;51.436;6.774;2023-07-20T03:10:57;100870.38;;;14.94;100.00
13612;BME280;6877;51.436;6.774;2023-07-20T03:13:28;100879.06;;;14.96;100.00
13612;BME280;6877;51.436;6.774;2023-07-20T03:15:59;100871.22;;;14.95;100.00
13612;BME280;6877;51.436;6.774;2023-07-20T03:18:26;100872.13;;;14.94;100.00
13612;BME280;6877;51.436;6.774;2023-07-20T03:20:52;100876.59;;;14.92;100.00
13612;BME280;6877;51.436;6.774;2023-07-20T03:23:19;100878.31;;;14.93;100.00
13612;BME280;6877;51.436;6.774;2023-07-20T03:25:45;100882.63;;;14.95;100.00
13612;BME280;6877;51.436;6.774;2023-07-20T03:28:17;100881.69;;;14.96;100.00
13612;BME280;6877;51.436;6.774;2023-07-20T03:30:43;100872.75;;;15.00;100.00
13612;BME280;6877;51.436;6.774;2023-07-20T03:33:10;100878.03;;;15.00;100.00
13612;BME280;6877;51.436;6.774;2023-07-20T03:35:42;100876.28;;;15.01;100.00
13612;BME280;6877;51.436;6.774;2023-07-20T03:38:13;100873.00;;;14.94;100.00
13612;BME280;6877;51.436;6.774;2023-07-20T03:41:05;100885.28;;;14.94;100.00
13612;BME280;6877;51.436;6.774;2023-07-20T03:43:32;100886.22;;;14.93;100.00
13612;BME280;6877;51.436;6.774;2023-07-20T03:45:58;100881.91;;;14.90;100.00
13612;BME280;6877;51.436;6.774;2023-07-20T03:48:25;100888.94;;;14.91;100.00
13612;BME280;6877;51.436;6.774;2023-07-20T03:50:53;100884.63;;;14.89;100.00
13612;BME280;6877;51.436;6.774;2023-07-20T03:53:20;100889.91;;;14.87;100.00
13612;BME280;6877;51.436;6.774;2023-07-20T03:55:47;100890.66;;;14.91;100.00
13612;BME280;6877;51.436;6.774;2023-07-20T03:58:15;100896.75;;;14.93;100.00
13612;BME280;6877;51.436;6.774;2023-07-20T04:00:49;100890.56;;;14.94;100.00
13612;BME280;6877;51.436;6.774;2023-07-20T04:03:19;100895.72;;;14.97;100.00
13612;BME280;6877;51.436;6.774;2023-07-20T04:05:51;100899.22;;;14.97;100.00
13612;BME280;6877;51.436;6.774;2023-07-20T04:08:24;100896.75;;;14.93;100.00
13612;BME280;6877;51.436;6.774;2023-07-20T04:11:01;100902.03;;;14.93;100.00
13612;BME280;6877;51.436;6.774;2023-07-20T04:13:27;100893.91;;;14.99;100.00
13612;BME280;6877;51.436;6.774;2023-07-20T04:15:54;100897.47;;;14.98;100.00
13612;BME280;6877;51.436;6.774;2023-07-20T04:18:21;100905.41;;;14.96;100.00
13612;BME280;6877;51.436;6.774;2023-07-20T04:20:47;100906.28;;;14.97;100.00
13612;BME280;6877;51.436;6.774;2023-07-20T04:23:14;100895.81;;;14.95;100.00
13612;BME280;6877;51.436;6.774;2023-07-20T04:25:41;100894.09;;;14.94;100.00
13612;BME280;6877;51.436;6.774;2023-07-20T04:28:08;100905.53;;;14.93;100.00
13612;BME280;6877;51.436;6.774;2023-07-20T04:30:38;100907.28;;;14.94;100.00
13612;BME280;6877;51.436;6.774;2023-07-20T04:33:06;100910.88;;;14.92;100.00
13612;BME280;6877;51.436;6.774;2023-07-20T04:36:04;100913.53;;;14.90;100.00
13612;BME280;6877;51.436;6.774;2023-07-20T04:38:31;100916.88;;;14.95;100.00
13612;BME280;6877;51.436;6.774;2023-07-20T04:40:57;100912.31;;;15.00;100.00
13612;BME280;6877;51.436;6.774;2023-07-20T04:43:24;100902.66;;;15.01;100.00
13612;BME280;6877;51.436;6.774;2023-07-20T04:45:55;100915.94;;;14.98;100.00
13612;BME280;6877;51.436;6.774;2023-07-20T04:48:22;100922.16;;;14.95;100.00
13612;BME280;6877;51.436;6.774;2023-07-20T04:50:53;100922.06;;;14.98;100.00
13612;BME280;6877;51.436;6.774;2023-07-20T04:53:24;100931.47;;;15.05;100.00
13612;BME280;6877;51.436;6.774;2023-07-20T04:55:51;100925.16;;;15.10;100.00
13612;BME280;6877;51.436;6.774;2023-07-20T04:58:19;100927.59;;;15.16;100.00
13612;BME280;6877;51.436;6.774;2023-07-20T05:00:45;100928.31;;;15.21;100.00
13612;BME280;6877;51.436;6.774;2023-07-20T05:03:12;100922.72;;;15.30;100.00
13612;BME280;6877;51.436;6.774;2023-07-20T05:05:39;100934.19;;;15.29;100.00
13612;BME280;6877;51.436;6.774;2023-07-20T05:08:05;100933.91;;;15.37;100.00
13612;BME280;6877;51.436;6.774;2023-07-20T05:10:32;100937.28;;;15.40;100.00
13612;BME280;6877;51.436;6.774;2023-07-20T05:12:59;100934.66;;;15.40;100.00
13612;BME280;6877;51.436;6.774;2023-07-20T05:15:25;100932.88;;;15.41;100.00
13612;BME280;6877;51.436;6.774;2023-07-20T05:17:52;100936.22;;;15.46;100.00
13612;BME280;6877;51.436;6.774;2023-07-20T05:20:23;100944.06;;;15.47;100.00
13612;BME280;6877;51.436;6.774;2023-07-20T05:22:55;100941.47;;;15.46;100.00
13612;BME280;6877;51.436;6.774;2023-07-20T05:25:21;100940.63;;;15.45;100.00
13612;BME280;6877;51.436;6.774;2023-07-20T05:27:49;100941.53;;;15.44;100.00
13612;BME280;6877;51.436;6.774;2023-07-20T05:30:17;100945.91;;;15.45;100.00
13612;BME280;6877;51.436;6.774;2023-07-20T05:32:43;100951.06;;;15.48;100.00
13612;BME280;6877;51.436;6.774;2023-07-20T05:35:11;100945.84;;;15.47;100.00
13612;BME280;6877;51.436;6.774;2023-07-20T05:37:38;100951.22;;;15.44;100.00
13612;BME280;6877;51.436;6.774;2023-07-20T05:40:10;100951.09;;;15.47;100.00
13612;BME280;6877;51.436;6.774;2023-07-20T05:42:38;100950.25;;;15.46;100.00
13612;BME280;6877;51.436;6.774;2023-07-20T05:45:10;100951.84;;;15.50;100.00
13612;BME280;6877;51.436;6.774;2023-07-20T05:47:42;100953.38;;;15.58;100.00
13612;BME280;6877;51.436;6.774;2023-07-20T05:50:09;100961.97;;;15.63;100.00
13612;BME280;6877;51.436;6.774;2023-07-20T05:52:36;100954.00;;;15.64;100.00
13612;BME280;6877;51.436;6.774;2023-07-20T05:55:10;100963.94;;;15.58;100.00
13612;BME280;6877;51.436;6.774;2023-07-20T05:57:36;100962.47;;;15.49;100.00
13612;BME280;6877;51.436;6.774;2023-07-20T06:00:06;100964.38;;;15.45;100.00
13612;BME280;6877;51.436;6.774;2023-07-20T06:02:33;100965.22;;;15.46;100.00
13612;BME280;6877;51.436;6.774;2023-07-20T06:04:59;100962.41;;;15.50;100.00
13612;BME280;6877;51.436;6.774;2023-07-20T06:07:26;100972.75;;;15.57;100.00
13612;BME280;6877;51.436;6.774;2023-07-20T06:09:58;100974.19;;;15.67;100.00
13612;BME280;6877;51.436;6.774;2023-07-20T06:12:30;100973.59;;;15.82;100.00
13612;BME280;6877;51.436;6.774;2023-07-20T06:14:56;100974.91;;;15.95;100.00
13612;BME280;6877;51.436;6.774;2023-07-20T06:17:28;100984.16;;;16.29;100.00
13612;BME280;6877;51.436;6.774;2023-07-20T06:19:54;100990.31;;;16.52;100.00
13612;BME280;6877;51.436;6.774;2023-07-20T06:22:21;100983.91;;;16.59;100.00
13612;BME280;6877;51.436;6.774;2023-07-20T06:24:52;100986.53;;;16.59;100.00
13612;BME280;6877;51.436;6.774;2023-07-20T06:27:19;100988.94;;;16.65;100.00
13612;BME280;6877;51.436;6.774;2023-07-20T06:29:45;100987.53;;;16.78;100.00
13612;BME280;6877;51.436;6.774;2023-07-20T06:32:16;100990.31;;;16.75;100.00
13612;BME280;6877;51.436;6.774;2023-07-20T06:34:43;100993.09;;;16.71;100.00
13612;BME280;6877;51.436;6.774;2023-07-20T06:37:09;100993.03;;;16.72;100.00
13612;BME280;6877;51.436;6.774;2023-07-20T06:39:36;100989.09;;;16.84;100.00
13612;BME280;6877;51.436;6.774;2023-07-20T06:42:03;100982.97;;;17.04;100.00
13612;BME280;6877;51.436;6.774;2023-07-20T06:44:34;100996.06;;;17.27;100.00
13612;BME280;6877;51.436;6.774;2023-07-20T06:47:06;100991.41;;;17.34;100.00
13612;BME280;6877;51.436;6.774;2023-07-20T06:49:37;100992.84;;;17.41;100.00
13612;BME280;6877;51.436;6.774;2023-07-20T06:52:04;100995.25;;;17.47;100.00
13612;BME280;6877;51.436;6.774;2023-07-20T06:54:36;100985.09;;;17.36;100.00
13612;BME280;6877;51.436;6.774;2023-07-20T06:57:02;100986.84;;;17.37;100.00
13612;BME280;6877;51.436;6.774;2023-07-20T06:59:29;100988.22;;;17.26;100.00
13612;BME280;6877;51.436;6.774;2023-07-20T07:01:55;100990.66;;;17.10;100.00
13612;BME280;6877;51.436;6.774;2023-07-20T07:04:27;100998.59;;;16.88;100.00
13612;BME280;6877;51.436;6.774;2023-07-20T07:06:54;101002.03;;;16.68;100.00
13612;BME280;6877;51.436;6.774;2023-07-20T07:09:21;100999.50;;;16.65;100.00
13612;BME280;6877;51.436;6.774;2023-07-20T07:11:52;101001.28;;;16.86;100.00
13612;BME280;6877;51.436;6.774;2023-07-20T07:14:20;101006.81;;;17.02;98.97
13612;BME280;6877;51.436;6.774;2023-07-20T07:16:51;100997.47;;;17.16;97.68
13612;BME280;6877;51.436;6.774;2023-07-20T07:19:18;100997.72;;;17.30;98.91
13612;BME280;6877;51.436;6.774;2023-07-20T07:21:44;101005.88;;;17.46;98.50
13612;BME280;6877;51.436;6.774;2023-07-20T07:24:11;101008.13;;;17.55;96.04
13612;BME280;6877;51.436;6.774;2023-07-20T07:26:37;101018.84;;;17.93;96.11
13612;BME280;6877;51.436;6.774;2023-07-20T07:29:05;101019.53;;;18.17;92.99
13612;BME280;6877;51.436;6.774;2023-07-20T07:31:34;101017.78;;;18.35;91.38
13612;BME280;6877;51.436;6.774;2023-07-20T07:34:07;101022.53;;;18.47;92.25
13612;BME280;6877;51.436;6.774;2023-07-20T07:36:34;101019.97;;;18.26;87.86
13612;BME280;6877;51.436;6.774;2023-07-20T07:39:01;101024.31;;;18.09;90.69
13612;BME280;6877;51.436;6.774;2023-07-20T07:41:33;101028.34;;;18.17;91.99
13612;BME280;6877;51.436;6.774;2023-07-20T07:44:04;101035.13;;;18.04;87.88
13612;BME280;6877;51.436;6.774;2023-07-20T07:46:31;101032.28;;;17.88;89.46
13612;BME280;6877;51.436;6.774;2023-07-20T07:48:58;101031.50;;;17.86;91.43
13612;BME280;6877;51.436;6.774;2023-07-20T07:51:25;101035.94;;;17.86;90.17
13612;BME280;6877;51.436;6.774;2023-07-20T07:53:58;101041.69;;;17.75;88.34
13612;BME280;6877;51.436;6.774;2023-07-20T07:56:24;101041.28;;;17.64;86.48
13612;BME280;6877;51.436;6.774;2023-07-20T07:58:51;101038.97;;;17.56;88.39
13612;BME280;6877;51.436;6.774;2023-07-20T08:01:18;101042.41;;;17.58;90.05
13612;BME280;6877;51.436;6.774;2023-07-20T08:03:52;101045.00;;;17.80;89.50
13612;BME280;6877;51.436;6.774;2023-07-20T08:06:19;101044.06;;;19.50;82.81
13612;BME280;6877;51.436;6.774;2023-07-20T08:08:46;101061.31;;;21.37;71.99
13612;BME280;6877;51.436;6.774;2023-07-20T08:11:12;101062.13;;;22.82;68.10
13612;BME280;6877;51.436;6.774;2023-07-20T08:13:44;101064.03;;;23.49;63.35
13612;BME280;6877;51.436;6.774;2023-07-20T08:16:10;101063.22;;;22.80;67.54
13612;BME280;6877;51.436;6.774;2023-07-20T08:18:43;101058.09;;;21.77;68.11
13612;BME280;6877;51.436;6.774;2023-07-20T08:21:15;101065.16;;;20.86;67.79
13612;BME280;6877;51.436;6.774;2023-07-20T08:23:46;101062.00;;;20.46;69.79
13612;BME280;6877;51.436;6.774;2023-07-20T08:26:13;101062.94;;;20.78;67.87
13612;BME280;6877;51.436;6.774;2023-07-20T08:28:39;101055.41;;;20.37;67.65
13612;BME280;6877;51.436;6.774;2023-07-20T08:31:11;101062.19;;;21.96;64.36
13612;BME280;6877;51.436;6.774;2023-07-20T08:33:42;101069.22;;;23.38;58.69
13612;BME280;6877;51.436;6.774;2023-07-20T08:36:09;101082.03;;;26.16;49.57
13612;BME280;6877;51.436;6.774;2023-07-20T08:38:40;101083.84;;;29.21;42.15
13612;BME280;6877;51.436;6.774;2023-07-20T08:41:12;101092.06;;;30.62;40.24
13612;BME280;6877;51.436;6.774;2023-07-20T08:43:41;101102.53;;;32.61;37.26
13612;BME280;6877;51.436;6.774;2023-07-20T08:46:11;101104.50;;;34.40;31.17
13612;BME280;6877;51.436;6.774;2023-07-20T08:48:43;101108.47;;;35.00;28.71
13612;BME280;6877;51.436;6.774;2023-07-20T08:51:11;101103.03;;;36.22;27.57
13612;BME280;6877;51.436;6.774;2023-07-20T08:53:39;101114.66;;;38.03;25.60
13612;BME280;6877;51.436;6.774;2023-07-20T08:56:11;101109.34;;;38.30;23.26
13612;BME280;6877;51.436;6.774;2023-07-20T08:58:43;101112.25;;;38.57;23.45
13612;BME280;6877;51.436;6.774;2023-07-20T09:01:17;101116.94;;;39.51;22.91
13612;BME280;6877;51.436;6.774;2023-07-20T09:03:45;101120.84;;;37.41;22.98
13612;BME280;6877;51.436;6.774;2023-07-20T09:06:16;101101.66;;;32.52;27.96
13612;BME280;6877;51.436;6.774;2023-07-20T09:08:43;101091.78;;;29.52;32.69
13612;BME280;6877;51.436;6.774;2023-07-20T09:11:14;101077.53;;;27.27;37.64
13612;BME280;6877;51.436;6.774;2023-07-20T09:13:46;101068.19;;;25.75;41.31
13612;BME280;6877;51.436;6.774;2023-07-20T09:16:13;101071.09;;;26.07;41.56
13612;BME280;6877;51.436;6.774;2023-07-20T09:18:41;101086.25;;;29.83;34.76
13612;BME280;6877;51.436;6.774;2023-07-20T09:21:08;101102.91;;;33.57;28.26
13612;BME280;6877;51.436;6.774;2023-07-20T09:23:39;101100.88;;;35.41;25.16
13612;BME280;6877;51.436;6.774;2023-07-20T09:26:14;101094.97;;;36.13;23.66
13612;BME280;6877;51.436;6.774;2023-07-20T09:28:42;101109.28;;;37.18;22.24
13612;BME280;6877;51.436;6.774;2023-07-20T09:31:17;101104.66;;;36.82;21.12
13612;BME280;6877;51.436;6.774;2023-07-20T09:33:46;101107.97;;;37.14;21.31
13612;BME280;6877;51.436;6.774;2023-07-20T09:36:13;101111.00;;;37.04;20.08
13612;BME280;6877;51.436;6.774;2023-07-20T09:38:45;101103.06;;;38.36;19.87
13612;BME280;6877;51.436;6.774;2023-07-20T09:41:17;101102.91;;;38.99;18.65
13612;BME280;6877;51.436;6.774;2023-07-20T09:43:52;101102.38;;;39.70;18.81
13612;BME280;6877;51.436;6.774;2023-07-20T09:46:24;101106.91;;;40.88;17.81
13612;BME280;6877;51.436;6.774;2023-07-20T09:48:53;101095.44;;;39.74;18.55
13612;BME280;6877;51.436;6.774;2023-07-20T09:51:23;101091.09;;;36.52;22.41
13612;BME280;6877;51.436;6.774;2023-07-20T09:53:53;101088.19;;;36.39;22.62
13612;BME280;6877;51.436;6.774;2023-07-20T09:56:21;101081.16;;;33.98;25.34
13612;BME280;6877;51.436;6.774;2023-07-20T09:58:49;101076.63;;;31.72;27.63
13612;BME280;6877;51.436;6.774;2023-07-20T10:01:20;101081.81;;;32.43;26.32
13612;BME280;6877;51.436;6.774;2023-07-20T10:03:54;101072.19;;;34.06;24.64
13612;BME280;6877;51.436;6.774;2023-07-20T10:06:23;101082.19;;;35.15;21.70
13612;BME280;6877;51.436;6.774;2023-07-20T10:09:00;101082.13;;;35.99;20.73
13612;BME280;6877;51.436;6.774;2023-07-20T10:11:30;101083.03;;;36.14;20.70
13612;BME280;6877;51.436;6.774;2023-07-20T10:14:03;101092.44;;;37.35;19.91
13612;BME280;6877;51.436;6.774;2023-07-20T10:16:38;101106.00;;;37.29;18.85
13612;BME280;6877;51.436;6.774;2023-07-20T10:19:11;101094.53;;;37.12;19.22
13612;BME280;6877;51.436;6.774;2023-07-20T10:21:42;101093.84;;;37.74;19.46
13612;BME280;6877;51.436;6.774;2023-07-20T10:24:14;101091.00;;;38.24;18.59
13612;BME280;6877;51.436;6.774;2023-07-20T10:26:41;101089.59;;;37.93;19.46
13612;BME280;6877;51.436;6.774;2023-07-20T10:29:07;101082.13;;;38.43;19.23
13612;BME280;6877;51.436;6.774;2023-07-20T10:31:35;101081.72;;;38.46;19.78
13612;BME280;6877;51.436;6.774;2023-07-20T10:34:08;101081.59;;;36.84;20.21
13612;BME280;6877;51.436;6.774;2023-07-20T10:36:43;101077.34;;;35.48;22.02
13612;BME280;6877;51.436;6.774;2023-07-20T10:39:42;101076.50;;;35.48;21.62
13612;BME280;6877;51.436;6.774;2023-07-20T10:42:10;101077.59;;;35.39;22.05
13612;BME280;6877;51.436;6.774;2023-07-20T10:44:41;101077.44;;;36.67;20.60
13612;BME280;6877;51.436;6.774;2023-07-20T10:47:12;101065.53;;;36.24;19.82
13612;BME280;6877;51.436;6.774;2023-07-20T10:49:57;101055.53;;;34.56;22.59
13612;BME280;6877;51.436;6.774;2023-07-20T10:52:25;101051.91;;;34.64;22.84
13612;BME280;6877;51.436;6.774;2023-07-20T10:54:52;101048.22;;;34.18;22.61
13612;BME280;6877;51.436;6.774;2023-07-20T10:57:28;101048.41;;;33.91;23.08
13612;BME280;6877;51.436;6.774;2023-07-20T11:00:12;101052.19;;;35.00;22.23
13612;BME280;6877;51.436;6.774;2023-07-20T11:05:33;101061.16;;;37.38;18.71
13612;BME280;6877;51.436;6.774;2023-07-20T11:08:14;101054.41;;;37.84;18.30
13612;BME280;6877;51.436;6.774;2023-07-20T11:11:21;101046.69;;;38.29;18.21
13612;BME280;6877;51.436;6.774;2023-07-20T11:14:21;101047.94;;;36.56;19.24
13612;BME280;6877;51.436;6.774;2023-07-20T11:16:53;101041.56;;;37.06;18.93
13612;BME280;6877;51.436;6.774;2023-07-20T11:19:25;101040.75;;;37.06;18.98
13612;BME280;6877;51.436;6.774;2023-07-20T11:21:54;101040.28;;;37.02;18.60
13612;BME280;6877;51.436;6.774;2023-07-20T11:24:21;101040.91;;;36.83;19.14
13612;BME280;6877;51.436;6.774;2023-07-20T11:26:53;101034.19;;;36.85;19.21
13612;BME280;6877;51.436;6.774;2023-07-20T11:29:21;101028.97;;;33.63;21.29
13612;BME280;6877;51.436;6.774;2023-07-20T11:31:49;101016.44;;;31.78;24.11
13612;BME280;6877;51.436;6.774;2023-07-20T11:34:20;101003.75;;;29.80;26.67
13612;BME280;6877;51.436;6.774;2023-07-20T11:36:49;101013.81;;;28.42;28.67
13612;BME280;6877;51.436;6.774;2023-07-20T11:39:22;101000.00;;;27.43;29.79
13612;BME280;6877;51.436;6.774;2023-07-20T11:41:54;101000.84;;;27.65;30.41
13612;BME280;6877;51.436;6.774;2023-07-20T11:44:22;100998.59;;;28.22;29.88
13612;BME280;6877;51.436;6.774;2023-07-20T11:47:08;101005.22;;;28.27;30.23
13612;BME280;6877;51.436;6.774;2023-07-20T11:52:11;100989.16;;;27.55;30.41
13612;BME280;6877;51.436;6.774;2023-07-20T11:54:45;100989.75;;;27.16;30.97
13612;BME280;6877;51.436;6.774;2023-07-20T11:57:17;100992.09;;;27.10;32.09
13612;BME280;6877;51.436;6.774;2023-07-20T11:59:55;100982.63;;;26.94;32.07
13612;BME280;6877;51.436;6.774;2023-07-20T12:02:28;100981.97;;;26.70;32.16
13612;BME280;6877;51.436;6.774;2023-07-20T12:04:55;100981.53;;;26.53;32.23
13612;BME280;6877;51.436;6.774;2023-07-20T12:07:22;100979.75;;;26.20;33.17
13612;BME280;6877;51.436;6.774;2023-07-20T12:12:37;100978.41;;;25.70;34.17
13612;BME280;6877;51.436;6.774;2023-07-20T12:15:19;100972.97;;;25.47;34.26
13612;BME280;6877;51.436;6.774;2023-07-20T12:17:52;100968.03;;;25.54;35.06
13612;BME280;6877;51.436;6.774;2023-07-20T12:20:35;100972.13;;;25.35;35.36
13612;BME280;6877;51.436;6.774;2023-07-20T12:23:10;100974.66;;;25.26;35.41
13612;BME280;6877;51.436;6.774;2023-07-20T12:25:44;100969.44;;;25.00;35.54
13612;BME280;6877;51.436;6.774;2023-07-20T12:28:16;100978.75;;;24.59;36.13
13612;BME280;6877;51.436;6.774;2023-07-20T12:30:44;100979.38;;;24.13;37.16
13612;BME280;6877;51.436;6.774;2023-07-20T12:33:10;100974.50;;;23.94;37.67
13612;BME280;6877;51.436;6.774;2023-07-20T12:35:38;100973.94;;;23.89;37.92
13612;BME280;6877;51.436;6.774;2023-07-20T12:38:09;100966.34;;;23.96;38.34
13612;BME280;6877;51.436;6.774;2023-07-20T12:40:36;100971.13;;;24.16;38.29
13612;BME280;6877;51.436;6.774;2023-07-20T12:43:08;100967.22;;;24.33;37.58
13612;BME280;6877;51.436;6.774;2023-07-20T12:45:34;100973.91;;;24.27;37.24
13612;BME280;6877;51.436;6.774;2023-07-20T12:48:01;100969.41;;;24.28;36.71
13612;BME280;6877;51.436;6.774;2023-07-20T12:50:27;100962.53;;;24.24;36.91
13612;BME280;6877;51.436;6.774;2023-07-20T12:52:58;100967.00;;;24.49;37.11
13612;BME280;6877;51.436;6.774;2023-07-20T12:55:25;100957.53;;;25.04;37.07
13612;BME280;6877;51.436;6.774;2023-07-20T12:57:57;100957.19;;;25.78;35.94
13612;BME280;6877;51.436;6.774;2023-07-20T13:00:28;100968.13;;;26.42;34.84
13612;BME280;6877;51.436;6.774;2023-07-20T13:02:54;100962.28;;;26.37;34.09
13612;BME280;6877;51.436;6.774;2023-07-20T13:05:26;100960.00;;;26.32;34.21
13612;BME280;6877;51.436;6.774;2023-07-20T13:07:52;100956.47;;;26.09;33.75
13612;BME280;6877;51.436;6.774;2023-07-20T13:10:24;100951.81;;;25.78;35.19
13612;BME280;6877;51.436;6.774;2023-07-20T13:12:55;100939.63;;;25.51;34.08
13612;BME280;6877;51.436;6.774;2023-07-20T13:15:29;100943.75;;;25.33;35.30
13612;BME280;6877;51.436;6.774;2023-07-20T13:17:57;100946.56;;;25.42;35.70
13612;BME280;6877;51.436;6.774;2023-07-20T13:20:29;100950.97;;;25.66;33.80
13612;BME280;6877;51.436;6.774;2023-07-20T13:22:56;100941.22;;;25.65;33.78
13612;BME280;6877;51.436;6.774;2023-07-20T13:25:27;100934.66;;;25.80;34.29
13612;BME280;6877;51.436;6.774;2023-07-20T13:27:54;100945.53;;;25.90;34.12